Hlavní strana
METAR-TAF:

METAR-TAF

Letiště :

Statesboro-Bulloch County Airport

Statesboro, Georgie, Spojené státy americké

zeměpisná šířka: 32-28-59N, zeměpisná délka: 081-44-14W, výška: 57 m

Aktuální stav počasí

Zpráva byla vytvořena před 11 minutami, v 23:15 UTC
Západní vítr 9 kt s nárazy do 16 kt
Teplota 9°C
Vlhkost vzduchu 66%
Tlak 1011 hPa
Viditelnost: 16.1 km
Zataženo ve výšce 3700 ft

METAR: KTBR 302315Z AUTO 28009G16KT 10SM OVC037 09/03 A2985 RMK AO2 T00930025

Čas: 18:26 (23:26 UTC)


TAF: chybějící

Stav a předpovědi počasí z více než 4 000 letišť (zprávy METAR a TAF).

Červené a žluté tečky na mapě představují dostupné meteorologické stanice.

Když kurzor umístíte na tečku, zobrazí se název stanice.

Pak kliknutím zobrazíte stav a předpověď počasí.

Chcete-li změnit mapu, kliknutím na zelené tlačítko se znaménkem +mapu přiblížíte, kliknutím na zelené tlačítko se znaménkem – mapu oddálíte a kliknutím na zelené šipky přejdete na sousední mapy.


METAR-TAF: